Time;durP1;ratioP1;P1;durP2;ratioP2;P2;SDS_P1;SDS_P2;PMS_P1;PMS_P2;Temp;Humidity;BMP_temperature;BMP_pressure;BME280_temperature;BME280_humidity;BME280_pressure;Samples;Min_cycle;Max_cycle;Signal;HPM_P1;HPM_P2
2021/12/10 00:00:09;;;;;;;;;;;1.0;71.9;;;;;;;;;
2021/12/10 00:05:08;;;;;;;;;;;1.0;71.9;;;;;;;;;
2021/12/10 00:10:10;;;;;;;;;;;0.9;71.6;;;;;;;;;
2021/12/10 00:15:07;;;;;;;;;;;0.9;72.0;;;;;;;;;
2021/12/10 00:20:09;;;;;;;;;;;0.9;71.9;;;;;;;;;
2021/12/10 00:25:09;;;;;;;;;;;0.9;71.8;;;;;;;;;
2021/12/10 00:30:10;;;;;;;;;;;0.9;71.2;;;;;;;;;
2021/12/10 00:35:09;;;;;;;;;;;0.9;71.0;;;;;;;;;
2021/12/10 00:40:10;;;;;;;;;;;0.9;70.9;;;;;;;;;
2021/12/10 00:45:10;;;;;;;;;;;0.9;70.7;;;;;;;;;
2021/12/10 00:50:10;;;;;;;;;;;0.9;70.1;;;;;;;;;
2021/12/10 00:55:08;;;;;;;;;;;1.0;70.1;;;;;;;;;
2021/12/10 01:00:10;;;;;;;;;;;1.0;70.2;;;;;;;;;
2021/12/10 01:05:08;;;;;;;;;;;1.1;69.7;;;;;;;;;
2021/12/10 01:10:11;;;;;;;;;;;1.1;69.5;;;;;;;;;
2021/12/10 01:15:32;;;;;;;;;;;1.0;69.5;;;;;;;;;
2021/12/10 01:25:13;;;;;;;;;;;0.9;69.3;;;;;;;;;
2021/12/10 01:30:11;;;;;;;;;;;1.0;69.4;;;;;;;;;
2021/12/10 01:35:10;;;;;;;;;;;0.9;69.5;;;;;;;;;
2021/12/10 01:40:08;;;;;;;;;;;1.0;69.6;;;;;;;;;
2021/12/10 01:45:17;;;;;;;;;;;0.9;69.8;;;;;;;;;
2021/12/10 01:50:08;;;;;;;;;;;0.9;70.3;;;;;;;;;
2021/12/10 01:55:08;;;;;;;;;;;0.9;70.4;;;;;;;;;
2021/12/10 02:00:09;;;;;;;;;;;0.9;70.5;;;;;;;;;
2021/12/10 02:05:08;;;;;;;;;;;0.8;70.8;;;;;;;;;
2021/12/10 02:10:09;;;;;;;;;;;0.6;71.2;;;;;;;;;
2021/12/10 02:15:10;;;;;;;;;;;0.5;71.1;;;;;;;;;
2021/12/10 02:20:10;;;;;;;;;;;0.4;71.5;;;;;;;;;
2021/12/10 02:25:08;;;;;;;;;;;0.4;71.4;;;;;;;;;
2021/12/10 02:30:09;;;;;;;;;;;0.3;71.9;;;;;;;;;
2021/12/10 02:35:10;;;;;;;;;;;0.2;72.7;;;;;;;;;
2021/12/10 02:40:09;;;;;;;;;;;0.1;73.1;;;;;;;;;
2021/12/10 02:45:09;;;;;;;;;;;0.0;73.5;;;;;;;;;
2021/12/10 02:50:08;;;;;;;;;;;-0.1;73.6;;;;;;;;;
2021/12/10 02:55:10;;;;;;;;;;;-0.1;73.2;;;;;;;;;
2021/12/10 03:00:09;;;;;;;;;;;-0.1;73.4;;;;;;;;;
2021/12/10 03:05:08;;;;;;;;;;;-0.1;73.5;;;;;;;;;
2021/12/10 03:10:10;;;;;;;;;;;-0.2;73.6;;;;;;;;;
2021/12/10 03:15:09;;;;;;;;;;;-0.1;73.2;;;;;;;;;
2021/12/10 03:20:09;;;;;;;;;;;-0.2;73.7;;;;;;;;;
2021/12/10 03:25:09;;;;;;;;;;;-0.2;73.6;;;;;;;;;
2021/12/10 03:30:09;;;;;;;;;;;-0.4;74.2;;;;;;;;;
2021/12/10 03:35:09;;;;;;;;;;;-0.3;74.1;;;;;;;;;
2021/12/10 03:40:09;;;;;;;;;;;-0.3;73.6;;;;;;;;;
2021/12/10 03:45:08;;;;;;;;;;;-0.4;73.7;;;;;;;;;
2021/12/10 03:50:08;;;;;;;;;;;-0.4;73.3;;;;;;;;;
2021/12/10 03:55:08;;;;;;;;;;;-0.4;73.4;;;;;;;;;
2021/12/10 04:00:08;;;;;;;;;;;-0.6;73.4;;;;;;;;;
2021/12/10 04:05:07;;;;;;;;;;;-0.6;73.7;;;;;;;;;
2021/12/10 04:10:09;;;;;;;;;;;-0.8;73.4;;;;;;;;;
2021/12/10 04:15:08;;;;;;;;;;;-0.7;73.2;;;;;;;;;
2021/12/10 04:20:08;;;;;;;;;;;-0.7;72.4;;;;;;;;;
2021/12/10 04:25:08;;;;;;;;;;;-0.7;71.8;;;;;;;;;
2021/12/10 04:30:10;;;;;;;;;;;-0.8;71.2;;;;;;;;;
2021/12/10 04:35:08;;;;;;;;;;;-1.0;70.9;;;;;;;;;
2021/12/10 04:40:09;;;;;;;;;;;-0.9;71.3;;;;;;;;;
2021/12/10 04:45:08;;;;;;;;;;;-1.0;71.3;;;;;;;;;
2021/12/10 04:50:08;;;;;;;;;;;-1.0;70.9;;;;;;;;;
2021/12/10 04:55:09;;;;;;;;;;;-1.0;71.3;;;;;;;;;
2021/12/10 05:00:10;;;;;;;;;;;-1.2;71.8;;;;;;;;;
2021/12/10 05:05:08;;;;;;;;;;;-1.1;71.7;;;;;;;;;
2021/12/10 05:10:09;;;;;;;;;;;-1.4;72.5;;;;;;;;;
2021/12/10 05:15:11;;;;;;;;;;;-1.2;71.4;;;;;;;;;
2021/12/10 05:20:12;;;;;;;;;;;-1.3;71.5;;;;;;;;;
2021/12/10 05:25:08;;;;;;;;;;;-1.4;71.7;;;;;;;;;
2021/12/10 05:30:09;;;;;;;;;;;-1.4;72.1;;;;;;;;;
2021/12/10 05:35:08;;;;;;;;;;;-1.3;71.7;;;;;;;;;
2021/12/10 05:40:11;;;;;;;;;;;-1.5;71.9;;;;;;;;;
2021/12/10 05:45:08;;;;;;;;;;;-1.6;71.5;;;;;;;;;
2021/12/10 05:50:08;;;;;;;;;;;-1.6;71.9;;;;;;;;;
2021/12/10 05:55:08;;;;;;;;;;;-1.7;72.1;;;;;;;;;
2021/12/10 06:00:10;;;;;;;;;;;-1.6;72.7;;;;;;;;;
2021/12/10 06:05:08;;;;;;;;;;;-1.4;72.6;;;;;;;;;
2021/12/10 06:10:10;;;;;;;;;;;-1.5;71.3;;;;;;;;;
2021/12/10 06:15:08;;;;;;;;;;;-1.5;71.6;;;;;;;;;
2021/12/10 06:20:09;;;;;;;;;;;-1.5;71.6;;;;;;;;;
2021/12/10 06:25:08;;;;;;;;;;;-1.6;71.3;;;;;;;;;
2021/12/10 06:30:08;;;;;;;;;;;-1.7;72.0;;;;;;;;;
2021/12/10 06:35:08;;;;;;;;;;;-1.6;71.6;;;;;;;;;
2021/12/10 06:40:09;;;;;;;;;;;-1.5;71.7;;;;;;;;;
2021/12/10 06:45:10;;;;;;;;;;;-1.5;71.7;;;;;;;;;
2021/12/10 06:50:08;;;;;;;;;;;-1.5;72.1;;;;;;;;;
2021/12/10 06:55:08;;;;;;;;;;;-1.7;72.5;;;;;;;;;
2021/12/10 07:00:10;;;;;;;;;;;-1.7;72.8;;;;;;;;;
2021/12/10 07:05:07;;;;;;;;;;;-1.6;72.6;;;;;;;;;
2021/12/10 07:10:09;;;;;;;;;;;-1.6;72.7;;;;;;;;;
2021/12/10 07:15:10;;;;;;;;;;;-1.6;72.6;;;;;;;;;
2021/12/10 07:20:08;;;;;;;;;;;-1.5;72.3;;;;;;;;;
2021/12/10 07:25:08;;;;;;;;;;;-1.7;72.7;;;;;;;;;
2021/12/10 07:30:08;;;;;;;;;;;-1.6;72.4;;;;;;;;;
2021/12/10 07:35:08;;;;;;;;;;;-1.5;72.4;;;;;;;;;
2021/12/10 07:45:08;;;;;;;;;;;-1.6;72.7;;;;;;;;;
2021/12/10 07:50:09;;;;;;;;;;;-1.6;73.0;;;;;;;;;
2021/12/10 07:55:09;;;;;;;;;;;-1.6;72.9;;;;;;;;;
2021/12/10 08:00:10;;;;;;;;;;;-1.3;72.1;;;;;;;;;
2021/12/10 08:05:08;;;;;;;;;;;-1.3;70.8;;;;;;;;;
2021/12/10 08:10:09;;;;;;;;;;;-1.3;69.8;;;;;;;;;
2021/12/10 08:15:08;;;;;;;;;;;-1.1;69.9;;;;;;;;;
2021/12/10 08:20:09;;;;;;;;;;;-1.1;68.6;;;;;;;;;
2021/12/10 08:25:08;;;;;;;;;;;-0.6;68.3;;;;;;;;;
2021/12/10 08:30:09;;;;;;;;;;;-0.2;66.2;;;;;;;;;
2021/12/10 08:35:09;;;;;;;;;;;0.3;64.5;;;;;;;;;
2021/12/10 08:40:09;;;;;;;;;;;0.5;63.0;;;;;;;;;
2021/12/10 08:45:08;;;;;;;;;;;0.4;62.8;;;;;;;;;
2021/12/10 08:50:09;;;;;;;;;;;0.1;63.6;;;;;;;;;
2021/12/10 08:55:07;;;;;;;;;;;-0.2;64.1;;;;;;;;;
2021/12/10 09:00:08;;;;;;;;;;;0.2;62.9;;;;;;;;;
2021/12/10 09:05:09;;;;;;;;;;;1.3;59.8;;;;;;;;;
2021/12/10 09:10:08;;;;;;;;;;;3.6;53.3;;;;;;;;;
2021/12/10 09:15:09;;;;;;;;;;;5.3;48.3;;;;;;;;;
2021/12/10 09:20:10;;;;;;;;;;;6.5;45.4;;;;;;;;;
2021/12/10 09:25:08;;;;;;;;;;;7.4;43.2;;;;;;;;;
2021/12/10 09:30:11;;;;;;;;;;;7.4;42.7;;;;;;;;;
2021/12/10 09:35:09;;;;;;;;;;;7.3;42.9;;;;;;;;;
2021/12/10 09:40:11;;;;;;;;;;;6.5;44.1;;;;;;;;;
2021/12/10 09:45:10;;;;;;;;;;;5.4;46.0;;;;;;;;;
2021/12/10 09:50:08;;;;;;;;;;;5.2;47.6;;;;;;;;;
2021/12/10 09:55:09;;;;;;;;;;;4.7;47.8;;;;;;;;;
2021/12/10 10:00:12;;;;;;;;;;;3.8;50.3;;;;;;;;;
2021/12/10 10:05:08;;;;;;;;;;;3.1;52.7;;;;;;;;;
2021/12/10 10:10:10;;;;;;;;;;;2.7;53.7;;;;;;;;;
2021/12/10 10:15:10;;;;;;;;;;;2.4;55.1;;;;;;;;;
2021/12/10 10:20:09;;;;;;;;;;;1.9;55.9;;;;;;;;;
2021/12/10 10:25:11;;;;;;;;;;;1.9;56.9;;;;;;;;;
2021/12/10 10:30:11;;;;;;;;;;;1.9;56.9;;;;;;;;;
2021/12/10 10:35:09;;;;;;;;;;;2.2;56.6;;;;;;;;;
2021/12/10 10:40:10;;;;;;;;;;;1.9;56.9;;;;;;;;;
2021/12/10 10:45:10;;;;;;;;;;;2.0;56.7;;;;;;;;;
2021/12/10 10:50:11;;;;;;;;;;;2.2;56.2;;;;;;;;;
2021/12/10 10:55:15;;;;;;;;;;;2.2;56.7;;;;;;;;;
2021/12/10 11:00:12;;;;;;;;;;;2.3;56.5;;;;;;;;;
2021/12/10 11:05:10;;;;;;;;;;;2.3;55.8;;;;;;;;;
2021/12/10 11:10:07;;;;;;;;;;;2.3;56.6;;;;;;;;;
2021/12/10 11:15:09;;;;;;;;;;;2.6;55.3;;;;;;;;;
2021/12/10 11:20:10;;;;;;;;;;;3.0;54.5;;;;;;;;;
2021/12/10 11:25:10;;;;;;;;;;;3.4;53.0;;;;;;;;;
2021/12/10 11:30:10;;;;;;;;;;;3.5;52.9;;;;;;;;;
2021/12/10 11:35:10;;;;;;;;;;;3.8;51.9;;;;;;;;;
2021/12/10 11:40:21;;;;;;;;;;;3.8;52.3;;;;;;;;;
2021/12/10 11:45:30;;;;;;;;;;;3.6;52.9;;;;;;;;;
2021/12/10 11:50:16;;;;;;;;;;;3.2;53.6;;;;;;;;;
2021/12/10 11:55:09;;;;;;;;;;;3.0;54.8;;;;;;;;;
2021/12/10 12:00:10;;;;;;;;;;;2.7;55.8;;;;;;;;;
2021/12/10 12:05:14;;;;;;;;;;;2.6;56.5;;;;;;;;;
2021/12/10 12:10:12;;;;;;;;;;;2.5;56.8;;;;;;;;;
2021/12/10 12:15:11;;;;;;;;;;;2.5;57.0;;;;;;;;;
2021/12/10 12:20:21;;;;;;;;;;;2.5;57.1;;;;;;;;;
2021/12/10 12:25:23;;;;;;;;;;;2.6;56.9;;;;;;;;;
2021/12/10 12:30:13;;;;;;;;;;;2.7;57.4;;;;;;;;;
2021/12/10 12:35:15;;;;;;;;;;;2.7;57.0;;;;;;;;;
2021/12/10 12:40:08;;;;;;;;;;;2.7;57.7;;;;;;;;;
2021/12/10 12:45:09;;;;;;;;;;;2.7;57.5;;;;;;;;;
2021/12/10 12:55:12;;;;;;;;;;;2.7;57.7;;;;;;;;;
2021/12/10 13:00:09;;;;;;;;;;;2.7;57.8;;;;;;;;;
2021/12/10 13:05:09;;;;;;;;;;;2.7;57.0;;;;;;;;;
2021/12/10 13:10:15;;;;;;;;;;;2.6;58.0;;;;;;;;;
2021/12/10 13:15:09;;;;;;;;;;;2.6;58.2;;;;;;;;;
2021/12/10 13:20:09;;;;;;;;;;;2.5;59.3;;;;;;;;;
2021/12/10 13:25:09;;;;;;;;;;;2.5;58.9;;;;;;;;;
2021/12/10 13:30:10;;;;;;;;;;;2.5;59.2;;;;;;;;;
2021/12/10 13:35:09;;;;;;;;;;;2.5;58.1;;;;;;;;;
2021/12/10 13:40:08;;;;;;;;;;;2.5;58.2;;;;;;;;;
2021/12/10 13:45:10;;;;;;;;;;;2.5;58.4;;;;;;;;;
2021/12/10 13:50:08;;;;;;;;;;;2.5;57.3;;;;;;;;;
2021/12/10 13:55:12;;;;;;;;;;;2.5;57.4;;;;;;;;;
2021/12/10 14:00:08;;;;;;;;;;;2.3;57.5;;;;;;;;;
2021/12/10 14:05:24;;;;;;;;;;;2.4;57.2;;;;;;;;;
2021/12/10 14:10:21;;;;;;;;;;;2.3;56.9;;;;;;;;;
2021/12/10 14:15:11;;;;;;;;;;;2.1;57.2;;;;;;;;;
2021/12/10 14:20:10;;;;;;;;;;;2.2;57.4;;;;;;;;;
2021/12/10 14:25:14;;;;;;;;;;;2.3;57.4;;;;;;;;;
2021/12/10 14:30:09;;;;;;;;;;;2.3;57.1;;;;;;;;;
2021/12/10 14:35:10;;;;;;;;;;;2.2;58.3;;;;;;;;;
2021/12/10 14:40:11;;;;;;;;;;;2.1;59.0;;;;;;;;;
2021/12/10 14:45:09;;;;;;;;;;;2.1;59.6;;;;;;;;;
2021/12/10 14:50:08;;;;;;;;;;;2.1;60.0;;;;;;;;;
2021/12/10 14:55:10;;;;;;;;;;;2.2;59.8;;;;;;;;;
2021/12/10 15:00:30;;;;;;;;;;;2.2;59.5;;;;;;;;;
2021/12/10 15:05:09;;;;;;;;;;;2.0;59.4;;;;;;;;;
2021/12/10 15:10:14;;;;;;;;;;;1.9;60.4;;;;;;;;;
2021/12/10 15:15:07;;;;;;;;;;;1.9;63.2;;;;;;;;;
2021/12/10 15:20:18;;;;;;;;;;;1.7;67.5;;;;;;;;;
2021/12/10 15:25:11;;;;;;;;;;;1.6;69.5;;;;;;;;;
2021/12/10 15:30:10;;;;;;;;;;;1.7;70.9;;;;;;;;;
2021/12/10 15:35:11;;;;;;;;;;;1.5;72.6;;;;;;;;;
2021/12/10 15:40:09;;;;;;;;;;;1.4;73.9;;;;;;;;;
2021/12/10 15:45:11;;;;;;;;;;;1.4;75.8;;;;;;;;;
2021/12/10 15:50:09;;;;;;;;;;;1.4;76.6;;;;;;;;;
2021/12/10 15:55:08;;;;;;;;;;;1.5;77.5;;;;;;;;;
2021/12/10 16:00:11;;;;;;;;;;;1.4;78.6;;;;;;;;;
2021/12/10 16:05:09;;;;;;;;;;;1.5;78.7;;;;;;;;;
2021/12/10 16:10:09;;;;;;;;;;;1.6;78.9;;;;;;;;;
2021/12/10 16:15:10;;;;;;;;;;;1.5;79.8;;;;;;;;;
2021/12/10 16:20:12;;;;;;;;;;;1.5;79.9;;;;;;;;;
2021/12/10 16:25:09;;;;;;;;;;;1.5;80.4;;;;;;;;;
2021/12/10 16:30:10;;;;;;;;;;;1.5;80.2;;;;;;;;;
2021/12/10 16:40:10;;;;;;;;;;;1.5;80.4;;;;;;;;;
2021/12/10 16:45:07;;;;;;;;;;;1.5;80.6;;;;;;;;;
2021/12/10 16:50:08;;;;;;;;;;;1.6;80.5;;;;;;;;;
2021/12/10 16:55:09;;;;;;;;;;;1.6;80.6;;;;;;;;;
2021/12/10 17:00:13;;;;;;;;;;;1.5;81.0;;;;;;;;;
2021/12/10 17:05:10;;;;;;;;;;;1.5;81.0;;;;;;;;;
2021/12/10 17:10:10;;;;;;;;;;;1.5;81.4;;;;;;;;;
2021/12/10 17:20:09;;;;;;;;;;;1.4;81.2;;;;;;;;;
2021/12/10 17:25:09;;;;;;;;;;;1.5;81.4;;;;;;;;;
2021/12/10 17:30:11;;;;;;;;;;;1.4;82.0;;;;;;;;;
2021/12/10 17:35:10;;;;;;;;;;;1.1;82.2;;;;;;;;;
2021/12/10 17:40:12;;;;;;;;;;;1.3;82.6;;;;;;;;;
2021/12/10 17:45:09;;;;;;;;;;;1.3;82.8;;;;;;;;;
2021/12/10 17:50:11;;;;;;;;;;;1.3;83.5;;;;;;;;;
2021/12/10 17:55:09;;;;;;;;;;;1.2;83.6;;;;;;;;;
2021/12/10 18:00:12;;;;;;;;;;;1.2;83.5;;;;;;;;;
2021/12/10 18:05:12;;;;;;;;;;;1.2;84.1;;;;;;;;;
2021/12/10 18:10:09;;;;;;;;;;;1.2;84.1;;;;;;;;;
2021/12/10 18:15:09;;;;;;;;;;;1.2;84.1;;;;;;;;;
2021/12/10 18:20:11;;;;;;;;;;;1.2;84.8;;;;;;;;;
2021/12/10 18:25:08;;;;;;;;;;;1.3;84.4;;;;;;;;;
2021/12/10 18:30:08;;;;;;;;;;;1.3;84.5;;;;;;;;;
2021/12/10 18:35:10;;;;;;;;;;;1.3;84.2;;;;;;;;;
2021/12/10 18:40:11;;;;;;;;;;;1.4;83.9;;;;;;;;;
2021/12/10 18:45:09;;;;;;;;;;;1.4;83.5;;;;;;;;;
2021/12/10 18:50:09;;;;;;;;;;;1.4;83.8;;;;;;;;;
2021/12/10 18:55:11;;;;;;;;;;;1.4;83.7;;;;;;;;;
2021/12/10 19:00:12;;;;;;;;;;;1.4;84.2;;;;;;;;;
2021/12/10 19:05:10;;;;;;;;;;;1.5;84.4;;;;;;;;;
2021/12/10 19:10:09;;;;;;;;;;;1.5;84.3;;;;;;;;;
2021/12/10 19:15:10;;;;;;;;;;;1.5;84.4;;;;;;;;;
2021/12/10 19:20:09;;;;;;;;;;;1.5;84.3;;;;;;;;;
2021/12/10 19:25:09;;;;;;;;;;;1.5;84.4;;;;;;;;;
2021/12/10 19:30:11;;;;;;;;;;;1.5;84.5;;;;;;;;;
2021/12/10 19:35:11;;;;;;;;;;;1.5;84.6;;;;;;;;;
2021/12/10 19:40:11;;;;;;;;;;;1.5;84.5;;;;;;;;;
2021/12/10 19:50:12;;;;;;;;;;;1.6;84.2;;;;;;;;;
2021/12/10 19:55:09;;;;;;;;;;;1.6;83.8;;;;;;;;;
2021/12/10 20:00:13;;;;;;;;;;;1.7;83.9;;;;;;;;;
2021/12/10 20:05:10;;;;;;;;;;;1.7;83.4;;;;;;;;;
2021/12/10 20:10:15;;;;;;;;;;;1.7;83.3;;;;;;;;;
2021/12/10 20:15:10;;;;;;;;;;;1.8;83.2;;;;;;;;;
2021/12/10 20:20:11;;;;;;;;;;;1.8;83.1;;;;;;;;;
2021/12/10 20:30:10;;;;;;;;;;;1.8;82.9;;;;;;;;;
2021/12/10 20:35:09;;;;;;;;;;;1.9;82.5;;;;;;;;;
2021/12/10 20:40:11;;;;;;;;;;;1.9;82.5;;;;;;;;;
2021/12/10 20:45:14;;;;;;;;;;;1.8;82.8;;;;;;;;;
2021/12/10 20:50:10;;;;;;;;;;;1.9;82.3;;;;;;;;;
2021/12/10 20:55:11;;;;;;;;;;;1.9;82.5;;;;;;;;;
2021/12/10 21:00:10;;;;;;;;;;;1.9;82.2;;;;;;;;;
2021/12/10 21:05:11;;;;;;;;;;;1.9;82.6;;;;;;;;;
2021/12/10 21:10:10;;;;;;;;;;;1.9;82.0;;;;;;;;;
2021/12/10 21:15:13;;;;;;;;;;;1.9;82.4;;;;;;;;;
2021/12/10 21:20:10;;;;;;;;;;;1.9;82.1;;;;;;;;;
2021/12/10 21:25:10;;;;;;;;;;;1.9;82.2;;;;;;;;;
2021/12/10 21:30:10;;;;;;;;;;;2.0;81.8;;;;;;;;;
2021/12/10 21:35:17;;;;;;;;;;;2.0;81.6;;;;;;;;;
2021/12/10 21:40:10;;;;;;;;;;;2.0;81.3;;;;;;;;;
2021/12/10 21:45:09;;;;;;;;;;;2.0;81.7;;;;;;;;;
2021/12/10 21:50:11;;;;;;;;;;;2.0;81.5;;;;;;;;;
2021/12/10 21:55:09;;;;;;;;;;;2.0;81.4;;;;;;;;;
2021/12/10 22:00:10;;;;;;;;;;;2.3;82.3;;;;;;;;;
2021/12/10 22:05:11;;;;;;;;;;;2.3;80.1;;;;;;;;;
2021/12/10 22:10:14;;;;;;;;;;;2.2;80.0;;;;;;;;;
2021/12/10 22:15:10;;;;;;;;;;;2.2;80.0;;;;;;;;;
2021/12/10 22:20:14;;;;;;;;;;;2.1;80.4;;;;;;;;;
2021/12/10 22:25:12;;;;;;;;;;;2.1;80.0;;;;;;;;;
2021/12/10 22:30:11;;;;;;;;;;;2.0;80.1;;;;;;;;;
2021/12/10 22:35:12;;;;;;;;;;;2.0;80.3;;;;;;;;;
2021/12/10 22:40:18;;;;;;;;;;;2.1;80.3;;;;;;;;;
2021/12/10 22:45:10;;;;;;;;;;;2.0;79.8;;;;;;;;;
2021/12/10 22:50:12;;;;;;;;;;;2.1;79.5;;;;;;;;;
2021/12/10 22:55:10;;;;;;;;;;;2.1;79.4;;;;;;;;;
2021/12/10 23:00:11;;;;;;;;;;;2.1;79.3;;;;;;;;;
2021/12/10 23:05:10;;;;;;;;;;;2.1;78.4;;;;;;;;;
2021/12/10 23:10:10;;;;;;;;;;;2.1;78.5;;;;;;;;;
2021/12/10 23:15:10;;;;;;;;;;;2.0;78.2;;;;;;;;;
2021/12/10 23:20:10;;;;;;;;;;;2.1;78.0;;;;;;;;;
2021/12/10 23:25:09;;;;;;;;;;;2.0;77.9;;;;;;;;;
2021/12/10 23:30:13;;;;;;;;;;;2.0;77.7;;;;;;;;;
2021/12/10 23:35:10;;;;;;;;;;;2.0;77.8;;;;;;;;;
2021/12/10 23:40:11;;;;;;;;;;;2.0;77.6;;;;;;;;;
2021/12/10 23:45:09;;;;;;;;;;;2.1;77.0;;;;;;;;;
2021/12/10 23:50:19;;;;;;;;;;;2.1;77.1;;;;;;;;;
2021/12/10 23:55:09;;;;;;;;;;;2.1;76.8;;;;;;;;;
